Time,TemperatureF,DewpointF,PressureIn,WindDirection,WindDirectionDegrees,WindSpeedMPH,WindSpeedGustMPH,Humidity,HourlyPrecipIn,Conditions,Clouds,dailyrainin,SoftwareType,DateUTC
2013-04-19 00:01:00,53.5,51.2,30.02,ENE,57,4.0,4.0,92,0.00,,FEW006,0.01,VWS V12.08,2013-04-19 04:01:00,
2013-04-19 00:11:00,53.6,51.3,30.02,ENE,57,4.0,4.0,92,0.00,,FEW006,0.00,VWS V12.08,2013-04-19 04:11:00,
2013-04-19 00:21:00,53.8,51.5,30.02,ENE,57,4.0,4.0,92,0.00,,FEW006,0.00,VWS V12.08,2013-04-19 04:21:00,
2013-04-19 00:31:00,54.1,52.1,30.01,ENE,57,4.0,4.0,93,0.00,,FEW006,0.00,VWS V12.08,2013-04-19 04:31:00,
2013-04-19 00:41:00,54.7,52.7,30.01,ENE,57,4.0,4.0,93,0.00,,FEW006,0.00,VWS V12.08,2013-04-19 04:41:00,
2013-04-19 00:51:00,55.3,53.9,30.01,ENE,57,4.0,4.0,95,0.00,,FEW006,0.00,VWS V12.08,2013-04-19 04:51:00,
2013-04-19 01:01:00,57.0,56.2,30.00,ENE,57,4.0,4.0,97,0.00,,BKN016,0.00,VWS V12.08,2013-04-19 05:01:00,
2013-04-19 01:11:00,57.8,57.0,30.00,ENE,57,4.0,4.0,97,0.00,,BKN016,0.00,VWS V12.08,2013-04-19 05:11:00,
2013-04-19 01:21:00,58.1,57.0,30.00,ENE,57,4.0,4.0,96,0.00,,BKN016,0.00,VWS V12.08,2013-04-19 05:21:00,
2013-04-19 01:31:00,58.6,57.5,30.00,ENE,57,4.0,4.0,96,0.00,,BKN016,0.00,VWS V12.08,2013-04-19 05:31:00,
2013-04-19 01:41:00,58.9,57.5,30.00,ENE,57,4.0,4.0,95,0.00,,BKN016,0.00,VWS V12.08,2013-04-19 05:41:00,
2013-04-19 01:51:00,59.2,57.5,29.99,ENE,57,4.0,4.0,94,0.00,,BKN016,0.00,VWS V12.08,2013-04-19 05:51:00,
2013-04-19 02:01:00,59.5,57.8,29.98,ENE,57,4.0,4.0,94,0.00,,OVC014,0.00,VWS V12.08,2013-04-19 06:01:00,
2013-04-19 02:11:00,59.6,57.6,29.98,ENE,57,4.0,4.0,93,0.00,,OVC014,0.00,VWS V12.08,2013-04-19 06:11:00,
2013-04-19 02:21:00,59.6,57.6,29.97,ENE,57,4.0,4.0,93,0.00,,OVC014,0.00,VWS V12.08,2013-04-19 06:21:00,
2013-04-19 02:31:00,59.6,57.6,29.96,ENE,57,4.0,4.0,93,0.00,,OVC014,0.00,VWS V12.08,2013-04-19 06:31:00,
2013-04-19 02:41:00,59.6,57.6,29.96,ENE,57,4.0,4.0,93,0.00,,OVC014,0.00,VWS V12.08,2013-04-19 06:41:00,
2013-04-19 02:51:00,59.6,57.6,29.95,ENE,57,4.0,4.0,93,0.00,,OVC014,0.00,VWS V12.08,2013-04-19 06:51:00,
2013-04-19 03:01:00,59.6,57.6,29.94,ENE,57,4.0,4.0,93,0.00,,OVC008,0.00,VWS V12.08,2013-04-19 07:01:00,
2013-04-19 03:11:00,59.8,57.8,29.94,ENE,57,4.0,4.0,93,0.00,,OVC008,0.00,VWS V12.08,2013-04-19 07:11:00,
2013-04-19 03:21:00,59.8,57.8,29.93,ENE,57,4.0,4.0,93,0.00,,OVC008,0.00,VWS V12.08,2013-04-19 07:21:00,
2013-04-19 03:31:00,59.9,57.9,29.92,ENE,57,4.0,4.0,93,0.00,,OVC008,0.00,VWS V12.08,2013-04-19 07:31:00,
2013-04-19 03:41:00,59.9,57.6,29.92,ENE,57,4.0,4.0,92,0.00,,OVC008,0.00,VWS V12.08,2013-04-19 07:41:00,
2013-04-19 03:51:00,60.1,57.8,29.93,ENE,57,4.0,4.0,92,0.00,,OVC008,0.00,VWS V12.08,2013-04-19 07:51:00,
2013-04-19 04:01:00,60.1,57.8,29.93,ENE,57,4.0,4.0,92,0.00,,OVC014,0.00,VWS V12.08,2013-04-19 08:01:00,
2013-04-19 04:11:00,60.1,57.8,29.93,ENE,57,4.0,4.0,92,0.00,,OVC014,0.00,VWS V12.08,2013-04-19 08:11:00,
2013-04-19 04:21:00,60.1,57.8,29.92,ENE,57,4.0,4.0,92,0.00,,OVC014,0.00,VWS V12.08,2013-04-19 08:21:00,
2013-04-19 04:31:00,60.1,57.8,29.92,ENE,57,4.0,4.0,92,0.00,,OVC014,0.00,VWS V12.08,2013-04-19 08:31:00,
2013-04-19 04:41:00,59.9,57.6,29.92,ENE,57,4.0,4.0,92,0.00,,OVC014,0.00,VWS V12.08,2013-04-19 08:41:00,
2013-04-19 04:51:00,59.6,57.3,29.92,ENE,57,4.0,4.0,92,0.00,,OVC014,0.00,VWS V12.08,2013-04-19 08:51:00,
2013-04-19 05:01:00,59.6,57.6,29.91,ENE,57,4.0,4.0,93,0.00,,OVC014,0.00,VWS V12.08,2013-04-19 09:01:00,
2013-04-19 05:11:00,59.8,57.8,29.91,ENE,57,4.0,4.0,93,0.00,,OVC014,0.00,VWS V12.08,2013-04-19 09:11:00,
2013-04-19 05:21:00,59.6,57.6,29.90,ENE,57,4.0,4.0,93,0.00,,OVC014,0.00,VWS V12.08,2013-04-19 09:21:00,
2013-04-19 05:31:00,59.8,57.8,29.89,ENE,57,4.0,4.0,93,0.00,,OVC014,0.00,VWS V12.08,2013-04-19 09:31:00,
2013-04-19 05:41:00,59.9,57.9,29.89,ENE,57,4.0,4.0,93,0.00,,OVC014,0.00,VWS V12.08,2013-04-19 09:41:00,
2013-04-19 05:51:00,59.9,57.6,29.89,ENE,57,4.0,4.0,92,0.00,,OVC014,0.00,VWS V12.08,2013-04-19 09:51:00,
2013-04-19 06:01:00,59.9,57.9,29.89,ENE,57,4.0,4.0,93,0.00,,OVC012,0.00,VWS V12.08,2013-04-19 10:01:00,
2013-04-19 06:11:00,59.9,57.9,29.89,ENE,57,4.0,4.0,93,0.00,,OVC012,0.00,VWS V12.08,2013-04-19 10:11:00,
2013-04-19 06:21:00,60.2,57.9,29.89,ENE,57,4.0,4.0,92,0.00,,OVC012,0.00,VWS V12.08,2013-04-19 10:21:00,
2013-04-19 06:31:00,60.4,58.1,29.90,ENE,57,4.0,4.0,92,0.00,,OVC012,0.00,VWS V12.08,2013-04-19 10:31:00,
2013-04-19 06:41:00,60.4,58.1,29.90,ENE,57,4.0,4.0,92,0.00,,OVC012,0.00,VWS V12.08,2013-04-19 10:41:00,
2013-04-19 06:51:00,60.5,58.2,29.91,ENE,57,4.0,4.0,92,0.00,,OVC012,0.00,VWS V12.08,2013-04-19 10:51:00,
2013-04-19 07:01:00,60.5,58.2,29.91,ENE,57,4.0,4.0,92,0.00,,OVC012,0.00,VWS V12.08,2013-04-19 11:01:00,
2013-04-19 07:11:00,60.7,58.4,29.91,ENE,57,4.0,4.0,92,0.00,,OVC012,0.00,VWS V12.08,2013-04-19 11:11:00,
2013-04-19 07:21:00,60.7,58.4,29.90,ENE,57,4.0,4.0,92,0.00,,OVC012,0.00,VWS V12.08,2013-04-19 11:21:00,
2013-04-19 07:31:00,60.9,58.6,29.90,ENE,57,4.0,4.0,92,0.00,,OVC012,0.00,VWS V12.08,2013-04-19 11:31:00,
2013-04-19 07:41:00,61.0,58.7,29.90,ENE,57,4.0,4.0,92,0.00,,OVC012,0.00,VWS V12.08,2013-04-19 11:41:00,
2013-04-19 07:51:00,61.2,58.6,29.90,ENE,57,4.0,4.0,91,0.00,,OVC012,0.00,VWS V12.08,2013-04-19 11:51:00,
2013-04-19 08:01:00,61.3,58.7,29.89,ENE,57,4.0,4.0,91,0.00,,OVC012,0.00,VWS V12.08,2013-04-19 12:01:00,
2013-04-19 08:11:00,61.6,59.0,29.89,ENE,57,4.0,4.0,91,0.00,,OVC012,0.00,VWS V12.08,2013-04-19 12:11:00,
2013-04-19 08:21:00,61.8,58.8,29.89,ENE,57,4.0,4.0,90,0.00,,OVC012,0.00,VWS V12.08,2013-04-19 12:21:00,
2013-04-19 08:31:00,61.8,58.8,29.88,ENE,57,4.0,4.0,90,0.00,,OVC012,0.00,VWS V12.08,2013-04-19 12:31:00,
2013-04-19 08:41:00,62.0,59.0,29.88,ENE,57,4.0,4.0,90,0.00,,OVC012,0.00,VWS V12.08,2013-04-19 12:41:00,
2013-04-19 08:51:00,62.3,59.0,29.88,ENE,57,4.0,4.0,89,0.00,,OVC012,0.00,VWS V12.08,2013-04-19 12:51:00,
2013-04-19 09:01:00,62.4,59.7,29.88,ENE,57,4.0,4.0,91,0.00,,OVC010,0.00,VWS V12.08,2013-04-19 13:01:00,
2013-04-19 09:11:00,62.6,60.2,29.88,ENE,57,4.0,4.0,92,0.00,,OVC010,0.00,VWS V12.08,2013-04-19 13:11:00,
2013-04-19 09:21:00,62.6,60.2,29.87,ENE,57,4.0,4.0,92,0.00,,OVC010,0.00,VWS V12.08,2013-04-19 13:21:00,
2013-04-19 09:31:00,62.6,59.9,29.86,ENE,57,4.0,4.0,91,0.00,,OVC010,0.00,VWS V12.08,2013-04-19 13:31:00,
2013-04-19 09:41:00,62.7,60.0,29.86,ENE,57,4.0,4.0,91,0.00,,OVC010,0.00,VWS V12.08,2013-04-19 13:41:00,
2013-04-19 09:51:00,63.1,60.4,29.86,ENE,57,4.0,4.0,91,0.00,,OVC010,0.00,VWS V12.08,2013-04-19 13:51:00,
2013-04-19 10:01:00,63.4,60.4,29.85,ENE,57,4.0,4.0,90,0.00,,,0.00,VWS V12.08,2013-04-19 14:01:00,
2013-04-19 10:11:00,63.7,60.7,29.85,ENE,57,4.0,4.0,90,0.00,,,0.00,VWS V12.08,2013-04-19 14:11:00,
2013-04-19 10:21:00,64.3,61.0,29.84,ENE,57,4.0,4.0,89,0.00,,,0.00,VWS V12.08,2013-04-19 14:21:00,
2013-04-19 10:31:00,64.8,61.2,29.84,ENE,57,4.0,4.0,88,0.00,,,0.00,VWS V12.08,2013-04-19 14:31:00,
2013-04-19 10:41:00,65.2,61.2,29.84,ENE,57,4.0,4.0,87,0.00,,,0.00,VWS V12.08,2013-04-19 14:41:00,
2013-04-19 10:51:00,65.6,61.3,29.83,ENE,57,4.0,4.0,86,0.00,,,0.00,VWS V12.08,2013-04-19 14:51:00,
2013-04-19 11:01:00,66.4,61.4,29.83,ENE,57,4.0,4.0,84,0.00,,OVC011,0.00,VWS V12.08,2013-04-19 15:01:00,
2013-04-19 11:11:00,67.3,62.3,29.83,ENE,57,4.0,4.0,84,0.00,,OVC011,0.00,VWS V12.08,2013-04-19 15:11:00,
2013-04-19 11:21:00,67.9,61.9,29.81,ENE,57,4.0,4.0,81,0.00,,OVC011,0.00,VWS V12.08,2013-04-19 15:21:00,
2013-04-19 11:31:00,68.3,62.2,29.80,ENE,57,4.0,4.0,81,0.00,,OVC011,0.00,VWS V12.08,2013-04-19 15:31:00,
2013-04-19 11:41:00,67.9,62.5,29.80,ENE,57,4.0,4.0,83,0.00,,OVC011,0.00,VWS V12.08,2013-04-19 15:41:00,
2013-04-19 11:51:00,67.4,63.1,29.80,ENE,57,4.0,4.0,86,0.01,,OVC011,0.01,VWS V12.08,2013-04-19 15:51:00,
2013-04-19 12:01:00,66.8,64.1,29.80,ENE,57,4.0,4.0,91,0.01,,OVC016,0.01,VWS V12.08,2013-04-19 16:01:00,
2013-04-19 12:11:00,66.3,63.9,29.80,ENE,57,4.0,4.0,92,0.02,,OVC016,0.02,VWS V12.08,2013-04-19 16:11:00,
2013-04-19 12:21:00,67.6,66.1,29.78,ENE,57,4.0,4.0,95,0.02,,OVC016,0.02,VWS V12.08,2013-04-19 16:21:00,
2013-04-19 12:31:00,69.1,66.1,29.77,ENE,57,4.0,4.0,90,0.02,,OVC016,0.02,VWS V12.08,2013-04-19 16:31:00,
2013-04-19 12:41:00,71.1,66.7,29.77,ENE,57,4.0,4.0,86,0.02,,OVC016,0.02,VWS V12.08,2013-04-19 16:41:00,
2013-04-19 12:51:00,71.3,63.7,29.76,ENE,57,4.0,4.0,77,0.02,,OVC016,0.02,VWS V12.08,2013-04-19 16:51:00,
2013-04-19 13:01:00,70.6,63.8,29.75,ENE,57,4.0,4.0,79,0.01,,BKN060,0.02,VWS V12.08,2013-04-19 17:01:00,
2013-04-19 13:11:00,70.9,64.1,29.75,ENE,57,4.0,4.0,79,0.01,,BKN060,0.02,VWS V12.08,2013-04-19 17:11:00,
2013-04-19 13:21:00,71.8,64.2,29.75,ENE,57,4.0,4.0,77,0.00,,BKN060,0.02,VWS V12.08,2013-04-19 17:21:00,
2013-04-19 13:31:00,72.0,63.3,29.73,ENE,57,4.0,4.0,74,0.00,,BKN060,0.02,VWS V12.08,2013-04-19 17:31:00,
2013-04-19 13:41:00,72.5,63.0,29.73,ENE,57,4.0,4.0,72,0.00,,BKN060,0.02,VWS V12.08,2013-04-19 17:41:00,
2013-04-19 13:51:00,72.5,63.8,29.72,ENE,57,4.0,4.0,74,0.00,,BKN060,0.02,VWS V12.08,2013-04-19 17:51:00,
2013-04-19 14:01:00,72.3,63.2,29.72,ENE,57,4.0,4.0,73,0.00,,OVC036,0.02,VWS V12.08,2013-04-19 18:01:00,
2013-04-19 14:11:00,72.3,62.8,29.72,ENE,57,4.0,4.0,72,0.00,,OVC036,0.02,VWS V12.08,2013-04-19 18:11:00,
2013-04-19 14:21:00,72.0,62.5,29.72,ENE,57,4.0,4.0,72,0.00,,OVC036,0.02,VWS V12.08,2013-04-19 18:21:00,
2013-04-19 14:31:00,72.8,63.7,29.70,ENE,57,4.0,4.0,73,0.00,,OVC036,0.02,VWS V12.08,2013-04-19 18:31:00,
2013-04-19 14:41:00,73.0,63.0,29.70,ENE,57,4.0,4.0,71,0.00,,OVC036,0.02,VWS V12.08,2013-04-19 18:41:00,
2013-04-19 14:51:00,73.3,62.9,29.68,ENE,57,4.0,4.0,70,0.00,,OVC036,0.02,VWS V12.08,2013-04-19 18:51:00,
2013-04-19 15:01:00,74.6,64.2,29.66,ENE,57,4.0,4.0,70,0.00,,OVC047,0.02,VWS V12.08,2013-04-19 19:01:00,
2013-04-19 15:11:00,73.7,61.2,29.66,ENE,57,4.0,4.0,65,0.00,,OVC047,0.02,VWS V12.08,2013-04-19 19:11:00,
2013-04-19 15:21:00,73.3,62.1,29.66,ENE,57,4.0,4.0,68,0.00,,OVC047,0.02,VWS V12.08,2013-04-19 19:21:00,
2013-04-19 15:31:00,72.8,62.0,29.65,ENE,57,4.0,4.0,69,0.00,,OVC047,0.02,VWS V12.08,2013-04-19 19:31:00,
2013-04-19 15:41:00,73.2,62.0,29.65,ENE,57,4.0,4.0,68,0.00,,OVC047,0.02,VWS V12.08,2013-04-19 19:41:00,
2013-04-19 15:51:00,74.4,62.7,29.64,ENE,57,4.0,4.0,67,0.00,,OVC047,0.02,VWS V12.08,2013-04-19 19:51:00,
2013-04-19 16:01:00,74.9,62.8,29.63,ENE,57,4.0,4.0,66,0.00,,BKN050,0.02,VWS V12.08,2013-04-19 20:01:00,
2013-04-19 16:11:00,74.7,62.2,29.63,ENE,57,4.0,4.0,65,0.00,,BKN050,0.02,VWS V12.08,2013-04-19 20:11:00,
2013-04-19 16:21:00,75.1,62.1,29.62,ENE,57,4.0,4.0,64,0.00,,BKN050,0.02,VWS V12.08,2013-04-19 20:21:00,
2013-04-19 16:31:00,75.6,62.6,29.59,ENE,57,4.0,4.0,64,0.00,,BKN050,0.02,VWS V12.08,2013-04-19 20:31:00,
2013-04-19 16:41:00,75.6,62.6,29.59,ENE,57,4.0,4.0,64,0.00,,BKN050,0.02,VWS V12.08,2013-04-19 20:41:00,
2013-04-19 16:51:00,76.5,62.5,29.60,ENE,57,4.0,4.0,62,0.00,,BKN050,0.02,VWS V12.08,2013-04-19 20:51:00,
2013-04-19 17:01:00,76.5,62.1,29.60,ENE,57,4.0,4.0,61,0.00,,BKN050,0.02,VWS V12.08,2013-04-19 21:01:00,
2013-04-19 17:11:00,76.7,62.7,29.60,ENE,57,4.0,4.0,62,0.00,,BKN050,0.02,VWS V12.08,2013-04-19 21:11:00,
2013-04-19 17:21:00,76.0,62.0,29.60,ENE,57,4.0,4.0,62,0.00,,BKN050,0.02,VWS V12.08,2013-04-19 21:21:00,
2013-04-19 17:31:00,75.4,62.4,29.60,ENE,57,4.0,4.0,64,0.00,,BKN050,0.02,VWS V12.08,2013-04-19 21:31:00,
2013-04-19 17:41:00,75.1,62.5,29.60,ENE,57,4.0,4.0,65,0.00,,BKN050,0.02,VWS V12.08,2013-04-19 21:41:00,
2013-04-19 17:51:00,74.9,62.3,29.60,ENE,57,4.0,4.0,65,0.00,,BKN050,0.02,VWS V12.08,2013-04-19 21:51:00,
2013-04-19 18:01:00,74.9,61.9,29.59,ENE,57,4.0,4.0,64,0.00,,SCT055,0.02,VWS V12.08,2013-04-19 22:01:00,
2013-04-19 18:11:00,74.9,62.3,29.59,ENE,57,4.0,4.0,65,0.00,,SCT055,0.02,VWS V12.08,2013-04-19 22:11:00,
2013-04-19 18:21:00,74.9,62.3,29.59,ENE,57,4.0,4.0,65,0.00,,SCT055,0.02,VWS V12.08,2013-04-19 22:21:00,
2013-04-19 18:31:00,74.6,62.1,29.59,ENE,57,4.0,4.0,65,0.00,,SCT055,0.02,VWS V12.08,2013-04-19 22:31:00,
2013-04-19 18:41:00,74.2,62.5,29.59,ENE,57,4.0,4.0,67,0.00,,SCT055,0.02,VWS V12.08,2013-04-19 22:41:00,
2013-04-19 18:51:00,74.2,62.5,29.58,ENE,57,4.0,4.0,67,0.00,,SCT055,0.02,VWS V12.08,2013-04-19 22:51:00,
2013-04-19 19:01:00,74.0,62.8,29.57,ENE,57,4.0,4.0,68,0.00,,BKN095,0.02,VWS V12.08,2013-04-19 23:01:00,
2013-04-19 19:11:00,73.5,63.1,29.57,ENE,57,4.0,4.0,70,0.00,,BKN095,0.02,VWS V12.08,2013-04-19 23:11:00,
2013-04-19 19:21:00,73.2,62.8,29.57,ENE,57,4.0,4.0,70,0.00,,BKN095,0.02,VWS V12.08,2013-04-19 23:21:00,
2013-04-19 19:31:00,73.0,62.7,29.56,ENE,57,4.0,4.0,70,0.00,,BKN095,0.02,VWS V12.08,2013-04-19 23:31:00,
2013-04-19 19:41:00,73.0,63.0,29.56,ENE,57,4.0,4.0,71,0.00,,BKN095,0.02,VWS V12.08,2013-04-19 23:41:00,
2013-04-19 19:51:00,72.8,62.9,29.56,ENE,57,4.0,4.0,71,0.00,,BKN095,0.02,VWS V12.08,2013-04-19 23:51:00,
2013-04-19 20:01:00,72.7,62.8,29.55,ENE,57,4.0,4.0,71,0.00,,OVC090,0.02,VWS V12.08,2013-04-20 00:01:00,
2013-04-19 20:11:00,72.7,62.8,29.55,ENE,57,4.0,4.0,71,0.00,,OVC090,0.02,VWS V12.08,2013-04-20 00:11:00,
2013-04-19 20:21:00,72.7,63.2,29.56,ENE,57,4.0,4.0,72,0.00,,OVC090,0.02,VWS V12.08,2013-04-20 00:21:00,
2013-04-19 20:31:00,72.5,63.0,29.56,ENE,57,4.0,4.0,72,0.00,,OVC090,0.02,VWS V12.08,2013-04-20 00:31:00,
2013-04-19 20:41:00,72.7,63.5,29.56,ENE,57,4.0,4.0,73,0.00,,OVC090,0.02,VWS V12.08,2013-04-20 00:41:00,
2013-04-19 20:51:00,72.5,63.8,29.56,ENE,57,4.0,4.0,74,0.00,,OVC090,0.02,VWS V12.08,2013-04-20 00:51:00,
2013-04-19 21:01:00,72.3,63.9,29.57,ENE,57,4.0,4.0,75,0.00,,BKN100,0.02,VWS V12.08,2013-04-20 01:01:00,
2013-04-19 21:11:00,70.6,64.8,29.57,ENE,57,4.0,4.0,82,0.01,,BKN100,0.03,VWS V12.08,2013-04-20 01:11:00,
2013-04-19 21:21:00,69.6,64.9,29.57,ENE,57,4.0,4.0,85,0.02,,BKN100,0.04,VWS V12.08,2013-04-20 01:21:00,
2013-04-19 21:31:00,68.9,65.5,29.59,ENE,57,4.0,4.0,89,0.02,,BKN100,0.04,VWS V12.08,2013-04-20 01:31:00,
2013-04-19 21:41:00,65.8,61.5,29.59,ENE,57,4.0,4.0,86,0.02,,BKN100,0.04,VWS V12.08,2013-04-20 01:41:00,
2013-04-19 21:51:00,63.4,61.0,29.64,ENE,57,4.0,4.0,92,0.12,,BKN100,0.14,VWS V12.08,2013-04-20 01:51:00,
2013-04-19 22:01:00,62.4,61.0,29.64,ENE,57,4.0,4.0,95,0.24,, +RA,0.26,VWS V12.08,2013-04-20 02:01:00,
2013-04-19 22:11:00,62.0,61.1,29.64,ENE,57,4.0,4.0,97,0.33,, +RA,0.35,VWS V12.08,2013-04-20 02:11:00,
2013-04-19 22:21:00,61.8,61.2,29.64,ENE,57,4.0,4.0,98,0.35,, +RA,0.38,VWS V12.08,2013-04-20 02:21:00,
2013-04-19 22:31:00,61.6,61.0,29.61,ENE,57,4.0,4.0,98,0.37,, +RA,0.41,VWS V12.08,2013-04-20 02:31:00,
2013-04-19 22:41:00,61.3,60.7,29.61,ENE,57,4.0,4.0,98,0.39,, +RA,0.43,VWS V12.08,2013-04-20 02:41:00,
2013-04-19 22:51:00,61.2,60.9,29.62,ENE,57,4.0,4.0,99,0.41,, +RA,0.45,VWS V12.08,2013-04-20 02:51:00,
2013-04-19 23:01:00,59.9,59.0,29.64,ENE,57,4.0,4.0,97,0.32,,RA,0.46,VWS V12.08,2013-04-20 03:01:00,
2013-04-19 23:11:00,58.1,56.4,29.64,ENE,57,4.0,4.0,94,0.21,,RA,0.47,VWS V12.08,2013-04-20 03:11:00,
2013-04-19 23:21:00,57.0,55.6,29.66,ENE,57,4.0,4.0,95,0.14,,RA,0.49,VWS V12.08,2013-04-20 03:21:00,
2013-04-19 23:31:00,56.5,55.1,29.67,ENE,57,4.0,4.0,95,0.12,,RA,0.50,VWS V12.08,2013-04-20 03:31:00,
2013-04-19 23:41:00,55.9,54.5,29.67,ENE,57,4.0,4.0,95,0.11,,RA,0.52,VWS V12.08,2013-04-20 03:41:00,
2013-04-19 23:51:00,55.6,54.5,29.68,ENE,57,4.0,4.0,96,0.10,,RA,0.53,VWS V12.08,2013-04-20 03:51:00,